Time;durP1;ratioP1;P1;durP2;ratioP2;P2;SDS_P1;SDS_P2;PMS_P1;PMS_P2;Temp;Humidity;BMP_temperature;BMP_pressure;BME280_temperature;BME280_humidity;BME280_pressure;Samples;Min_cycle;Max_cycle;Signal;HPM_P1;HPM_P2
2024/01/30 00:02:01;;;;;;;12.02;8.30;;;;;;;11.46;59.33;102585.72;4958527;28;114347;-84
2024/01/30 00:04:28;;;;;;;14.18;8.75;;;;;;;11.45;59.44;102584.00;4978780;28;124201;-84
2024/01/30 00:06:56;;;;;;;10.57;8.35;;;;;;;11.43;59.43;102591.13;4966898;28;122662;-83
2024/01/30 00:09:23;;;;;;;13.45;8.82;;;;;;;11.42;59.46;102589.34;4950258;28;114783;-84
2024/01/30 00:11:50;;;;;;;11.70;8.35;;;;;;;11.39;59.40;102584.09;4970455;28;113588;-84
2024/01/30 00:14:18;;;;;;;12.20;8.73;;;;;;;11.37;59.23;102591.22;4961920;28;123703;-84
2024/01/30 00:16:45;;;;;;;13.18;8.70;;;;;;;11.34;59.33;102586.00;4960280;28;124734;-84
2024/01/30 00:19:13;;;;;;;10.63;8.10;;;;;;;11.32;59.55;102587.81;4970174;28;115361;-84
2024/01/30 00:21:40;;;;;;;12.15;8.57;;;;;;;11.30;59.52;102589.59;4965687;28;115200;-84
2024/01/30 00:24:08;;;;;;;13.35;8.60;;;;;;;11.27;59.49;102587.03;4946703;28;125018;-84
2024/01/30 00:26:35;;;;;;;15.98;9.73;;;;;;;11.25;59.39;102588.84;4968707;28;123880;-84
2024/01/30 00:29:02;;;;;;;14.00;9.25;;;;;;;11.21;59.49;102590.66;4966991;28;116009;-84
2024/01/30 00:31:30;;;;;;;12.80;8.60;;;;;;;11.20;59.38;102588.03;4976579;28;115718;-84
2024/01/30 00:33:57;;;;;;;13.80;8.82;;;;;;;11.18;59.30;102590.72;4969952;28;124891;-84
2024/01/30 00:36:24;;;;;;;10.48;7.80;;;;;;;11.17;59.33;102582.78;4968055;28;124330;-83
2024/01/30 00:38:51;;;;;;;18.42;9.45;;;;;;;11.13;59.42;102579.31;4984615;28;114095;-84
2024/01/30 00:41:19;;;;;;;13.68;8.77;;;;;;;11.10;59.43;102577.59;4963291;28;114868;-83
2024/01/30 00:43:46;;;;;;;14.73;9.30;;;;;;;11.07;59.67;102582.97;4975941;28;123925;-83
2024/01/30 00:46:13;;;;;;;13.10;8.55;;;;;;;11.04;59.52;102579.53;4960698;28;125592;-83
2024/01/30 00:48:41;;;;;;;16.30;10.00;;;;;;;11.02;59.82;102582.19;4953033;28;114948;-84
2024/01/30 00:51:08;;;;;;;17.85;10.65;;;;;;;10.99;59.54;102574.28;4951809;28;114568;-83
2024/01/30 00:53:35;;;;;;;18.40;10.38;;;;;;;10.97;59.67;102576.09;4968469;28;125564;-84
2024/01/30 00:56:03;;;;;;;13.43;9.20;;;;;;;10.96;59.71;102569.03;4967050;28;122339;-83
2024/01/30 00:58:30;;;;;;;14.63;9.20;;;;;;;10.95;59.86;102572.59;4946283;28;114898;-83
2024/01/30 01:00:58;;;;;;;17.23;9.50;;;;;;;10.94;59.82;102573.50;4973511;28;114529;-83
2024/01/30 01:03:25;;;;;;;14.25;9.55;;;;;;;10.93;59.98;102571.75;4970041;28;123317;-83
2024/01/30 01:05:52;;;;;;;12.35;8.85;;;;;;;10.94;59.87;102576.16;4970344;28;123285;-83
2024/01/30 01:08:20;;;;;;;12.98;8.73;;;;;;;10.94;59.89;102576.16;4955340;28;115901;-84
2024/01/30 01:10:47;;;;;;;14.82;9.40;;;;;;;10.93;59.79;102571.75;4953227;28;113306;-84
2024/01/30 01:13:14;;;;;;;14.50;8.52;;;;;;;10.93;59.96;102574.41;4973415;28;125653;-83
2024/01/30 01:15:43;;;;;;;13.52;8.77;;;;;;;10.92;59.73;102570.00;5000275;28;123165;-83
2024/01/30 01:18:10;;;;;;;14.52;8.35;;;;;;;10.93;59.71;102568.25;4996305;28;114782;-82
2024/01/30 01:20:37;;;;;;;14.35;8.52;;;;;;;10.92;59.67;102564.69;4971188;28;113923;-81
2024/01/30 01:23:04;;;;;;;11.13;8.23;;;;;;;10.93;60.03;102560.28;4988305;28;123519;-81
2024/01/30 01:25:32;;;;;;;14.65;8.63;;;;;;;10.93;59.72;102558.50;4993050;28;123860;-81
2024/01/30 01:28:01;;;;;;;13.30;9.18;;;;;;;10.91;59.84;102555.00;5000419;28;113770;-82
2024/01/30 01:30:29;;;;;;;12.35;8.60;;;;;;;10.90;59.64;102553.25;4992903;28;113140;-83
2024/01/30 01:32:56;;;;;;;13.45;8.90;;;;;;;10.88;59.79;102560.34;4993723;28;125280;-82
2024/01/30 01:35:24;;;;;;;14.30;8.98;;;;;;;10.85;59.61;102550.69;4983514;28;123358;-83
2024/01/30 01:37:56;;;;;;;13.43;9.10;;;;;;;10.83;59.51;102546.31;4962273;28;113873;-84
2024/01/30 01:40:27;;;;;;;13.25;8.90;;;;;;;10.80;59.88;102546.38;4966559;28;115001;-84
2024/01/30 01:42:55;;;;;;;13.57;8.88;;;;;;;10.76;59.48;102544.69;4969373;28;124081;-84
2024/01/30 01:45:23;;;;;;;15.57;8.65;;;;;;;10.73;59.61;102534.16;4969243;28;122174;-84
2024/01/30 01:47:51;;;;;;;12.88;8.50;;;;;;;10.70;59.52;102535.94;4969359;28;114577;-84
2024/01/30 01:50:21;;;;;;;12.77;8.52;;;;;;;10.68;59.74;102537.75;4973145;28;114285;-84
2024/01/30 01:52:50;;;;;;;13.77;9.27;;;;;;;10.67;59.99;102540.44;4970357;28;126016;-84
2024/01/30 01:55:24;;;;;;;14.98;8.75;;;;;;;10.67;60.01;102535.13;4963277;28;125351;-84
2024/01/30 01:57:53;;;;;;;15.15;8.90;;;;;;;10.67;59.75;102536.00;4974050;28;114044;-84
2024/01/30 02:00:20;;;;;;;14.15;9.30;;;;;;;10.67;59.67;102533.34;4971311;28;114359;-83
2024/01/30 02:02:49;;;;;;;14.15;8.63;;;;;;;10.66;59.84;102539.56;4971035;28;124119;-83
2024/01/30 02:05:17;;;;;;;17.50;8.90;;;;;;;10.66;59.97;102531.63;4942603;28;123075;-84
2024/01/30 02:07:44;;;;;;;15.68;9.50;;;;;;;10.66;59.82;102534.28;4965470;28;113373;-83
2024/01/30 02:10:12;;;;;;;13.43;8.35;;;;;;;10.66;59.99;102528.06;4971734;28;116446;-84
2024/01/30 02:12:40;;;;;;;14.98;9.02;;;;;;;10.64;59.81;102530.78;4971125;28;125581;-84
2024/01/30 02:15:07;;;;;;;14.60;8.15;;;;;;;10.63;60.06;102536.97;4972026;28;124502;-83
2024/01/30 02:17:35;;;;;;;13.82;8.68;;;;;;;10.64;60.09;102524.56;4957629;28;115308;-84
2024/01/30 02:20:03;;;;;;;14.85;8.40;;;;;;;10.63;60.08;102523.72;4972946;28;113487;-83
2024/01/30 02:22:33;;;;;;;12.88;8.45;;;;;;;10.65;60.12;102532.50;4962603;28;124544;-84
2024/01/30 02:25:01;;;;;;;12.70;8.05;;;;;;;10.67;60.00;102529.84;4972562;28;125796;-83
2024/01/30 02:27:28;;;;;;;13.60;8.80;;;;;;;10.68;60.21;102527.16;4970858;28;114163;-84
2024/01/30 02:29:55;;;;;;;12.98;8.13;;;;;;;10.69;60.04;102528.03;4969993;28;114090;-84
2024/01/30 02:32:22;;;;;;;13.70;8.82;;;;;;;10.70;60.05;102528.00;4972772;28;123748;-84
2024/01/30 02:34:50;;;;;;;13.68;8.98;;;;;;;10.73;60.03;102526.19;4971238;28;124736;-84
2024/01/30 02:37:17;;;;;;;12.77;8.52;;;;;;;10.73;60.37;102523.56;4964436;28;114483;-83
2024/01/30 02:39:45;;;;;;;10.18;5.80;;;;;;;10.76;60.10;102529.66;4966989;28;114100;-83
2024/01/30 02:42:12;;;;;;;12.02;8.20;;;;;;;10.77;60.02;102519.94;4954281;28;122337;-84
2024/01/30 02:44:39;;;;;;;12.13;8.10;;;;;;;10.78;60.11;102519.03;4971472;28;122880;-84
2024/01/30 02:47:06;;;;;;;19.20;6.53;;;;;;;10.79;60.09;102507.53;4962154;28;115529;-83
2024/01/30 02:49:34;;;;;;;13.25;7.47;;;;;;;10.80;60.15;102511.94;4971746;28;115053;-83
2024/01/30 02:52:01;;;;;;;13.82;8.40;;;;;;;10.82;60.05;102507.47;4973433;28;124805;-83
2024/01/30 02:54:30;;;;;;;14.23;8.25;;;;;;;10.82;60.20;102507.47;4945313;28;122990;-84
2024/01/30 02:56:57;;;;;;;13.13;7.28;;;;;;;10.83;60.27;102511.84;4984630;28;115123;-83
2024/01/30 02:59:25;;;;;;;12.02;7.47;;;;;;;10.83;60.11;102510.09;4963088;28;115981;-83
2024/01/30 03:01:52;;;;;;;10.80;7.10;;;;;;;10.84;59.98;102505.66;4959307;28;124880;-83
2024/01/30 03:04:19;;;;;;;12.02;7.97;;;;;;;10.85;60.03;102502.09;4966291;28;124670;-83
2024/01/30 03:06:47;;;;;;;14.07;7.45;;;;;;;10.85;60.18;102502.09;4983303;28;115382;-84
2024/01/30 03:09:16;;;;;;;15.65;7.65;;;;;;;10.85;60.02;102503.00;4968783;28;112783;-83
2024/01/30 03:11:44;;;;;;;11.13;7.20;;;;;;;10.87;60.11;102497.66;4954013;28;124308;-83
2024/01/30 03:14:11;;;;;;;10.93;7.28;;;;;;;10.87;60.02;102500.31;4966812;28;122859;-83
2024/01/30 03:16:38;;;;;;;12.43;5.90;;;;;;;10.88;60.16;102491.44;4952637;28;114674;-83
2024/01/30 03:19:07;;;;;;;11.00;5.57;;;;;;;10.88;60.19;102496.75;4962557;28;113203;-83
2024/01/30 03:21:35;;;;;;;8.95;5.15;;;;;;;10.89;59.95;102498.50;4975970;28;123775;-82
2024/01/30 03:24:06;;;;;;;10.00;5.55;;;;;;;10.91;59.92;102491.41;4979045;28;123050;-85
2024/01/30 03:26:34;;;;;;;10.07;4.97;;;;;;;10.92;60.03;102487.81;4946410;28;112391;-83
2024/01/30 03:29:01;;;;;;;10.27;5.20;;;;;;;10.92;60.04;102487.81;4954087;28;112756;-84
2024/01/30 03:31:28;;;;;;;11.82;5.68;;;;;;;10.95;59.82;102481.59;4960253;28;122115;-84
2024/01/30 03:33:55;;;;;;;11.48;5.80;;;;;;;10.95;59.92;102482.47;4971942;28;125923;-84
2024/01/30 03:36:23;;;;;;;9.32;4.65;;;;;;;10.97;59.92;102470.06;4973854;28;115099;-83
2024/01/30 03:38:50;;;;;;;12.82;8.30;;;;;;;10.98;59.90;102476.22;4957479;28;113187;-84
2024/01/30 03:41:17;;;;;;;10.98;7.50;;;;;;;10.98;59.98;102476.22;4957940;28;124064;-84
2024/01/30 03:43:44;;;;;;;12.13;5.50;;;;;;;10.97;59.83;102470.06;4974605;28;123603;-84
2024/01/30 03:46:13;;;;;;;11.77;8.27;;;;;;;10.98;59.92;102466.50;4982926;28;115666;-83
2024/01/30 03:48:40;;;;;;;13.10;8.48;;;;;;;10.99;59.90;102467.38;4975235;28;115454;-84
2024/01/30 03:51:07;;;;;;;12.35;7.57;;;;;;;10.98;60.02;102461.22;4959186;28;123741;-84
2024/01/30 03:53:35;;;;;;;12.50;7.93;;;;;;;10.98;59.80;102455.91;4974958;28;125468;-83
2024/01/30 03:56:03;;;;;;;10.95;7.70;;;;;;;10.98;60.13;102461.22;4974151;28;113442;-84
2024/01/30 03:58:30;;;;;;;14.02;8.20;;;;;;;10.98;60.08;102466.50;4968391;28;115395;-84
2024/01/30 04:00:57;;;;;;;16.92;8.73;;;;;;;10.98;59.98;102461.22;4974114;28;124983;-84
2024/01/30 04:03:24;;;;;;;12.65;7.95;;;;;;;10.99;60.01;102462.94;4965232;28;124708;-84
2024/01/30 04:05:52;;;;;;;11.30;7.70;;;;;;;11.00;60.16;102464.69;4977265;28;115869;-83
2024/01/30 04:08:20;;;;;;;11.63;8.20;;;;;;;11.00;60.06;102467.34;4952736;28;114851;-84
2024/01/30 04:10:47;;;;;;;13.20;8.20;;;;;;;11.01;60.19;102471.72;4977650;28;124064;-84
2024/01/30 04:13:14;;;;;;;11.80;7.70;;;;;;;11.02;59.79;102478.78;4942162;28;123281;-84
2024/01/30 04:15:42;;;;;;;14.55;8.38;;;;;;;11.03;60.01;102469.91;4952976;28;113938;-83
2024/01/30 04:18:09;;;;;;;11.95;7.68;;;;;;;11.04;59.95;102476.97;4948830;28;114865;-82
2024/01/30 04:20:36;;;;;;;11.48;7.90;;;;;;;11.05;60.09;102473.41;4978109;28;124778;-82
2024/01/30 04:23:04;;;;;;;12.23;7.93;;;;;;;11.07;59.97;102476.91;4969790;28;125074;-82
2024/01/30 04:25:31;;;;;;;13.30;8.32;;;;;;;11.09;60.19;102475.13;4970142;28;113954;-82
2024/01/30 04:27:58;;;;;;;10.95;7.80;;;;;;;11.10;59.96;102474.19;4953545;28;115282;-81
2024/01/30 04:30:25;;;;;;;13.13;7.65;;;;;;;11.13;60.36;102465.28;4962082;28;125136;-82
2024/01/30 04:32:53;;;;;;;13.43;8.02;;;;;;;11.16;60.21;102464.38;4953370;28;126320;-82
2024/01/30 04:35:23;;;;;;;11.25;7.82;;;;;;;11.18;60.00;102467.88;4961799;28;115198;-82
2024/01/30 04:37:53;;;;;;;10.68;7.57;;;;;;;11.19;59.96;102461.63;4960528;28;113945;-84
2024/01/30 04:40:21;;;;;;;10.95;7.82;;;;;;;11.20;60.12;102460.75;4952964;28;123861;-85
2024/01/30 04:42:48;;;;;;;10.43;7.22;;;;;;;11.20;60.17;102463.41;4959005;28;124834;-84
2024/01/30 04:45:15;;;;;;;13.55;7.97;;;;;;;11.21;60.00;102459.84;4968425;28;114616;-84
2024/01/30 04:48:08;;;;;;;11.88;7.53;;;;;;;11.21;60.26;102457.19;4968142;28;114597;-84
2024/01/30 04:50:35;;;;;;;11.13;7.65;;;;;;;11.21;59.96;102455.41;4942700;28;123537;-84
2024/01/30 04:53:03;;;;;;;12.40;7.55;;;;;;;11.23;60.09;102458.03;4968100;28;125848;-84
2024/01/30 04:55:30;;;;;;;13.93;7.90;;;;;;;11.24;60.07;102457.09;4940934;28;115611;-84
2024/01/30 04:57:57;;;;;;;10.93;7.40;;;;;;;11.25;60.08;102448.25;4953420;28;112328;-84
2024/01/30 05:00:25;;;;;;;10.63;7.00;;;;;;;11.26;60.17;102445.59;4946950;28;125457;-84
2024/01/30 05:02:52;;;;;;;13.88;7.18;;;;;;;11.27;60.22;102447.31;4948051;28;125305;-84
2024/01/30 05:05:19;;;;;;;12.48;7.40;;;;;;;11.29;60.12;102449.94;4945591;28;114317;-84
2024/01/30 05:07:46;;;;;;;14.00;7.72;;;;;;;11.29;60.23;102440.19;4951265;28;115360;-84
2024/01/30 05:10:13;;;;;;;12.15;6.90;;;;;;;11.31;60.16;102437.50;4958978;28;124566;-84
2024/01/30 05:12:41;;;;;;;12.30;7.53;;;;;;;11.32;60.00;102444.56;4968821;28;125734;-84
2024/01/30 05:15:08;;;;;;;10.82;7.38;;;;;;;11.33;60.09;102435.69;4969397;28;112581;-84
2024/01/30 05:17:36;;;;;;;12.90;7.20;;;;;;;11.33;60.23;102433.03;4962627;28;113546;-84
2024/01/30 05:20:04;;;;;;;12.05;6.95;;;;;;;11.35;60.20;102433.88;4972807;28;123999;-84
2024/01/30 05:22:32;;;;;;;12.77;6.82;;;;;;;11.36;60.20;102430.31;4967403;28;125118;-84
2024/01/30 05:24:59;;;;;;;9.90;6.82;;;;;;;11.39;60.24;102435.53;4968948;28;115918;-83
2024/01/30 05:27:26;;;;;;;10.10;7.03;;;;;;;11.42;60.20;102432.84;4966822;28;116053;-82
2024/01/30 05:29:53;;;;;;;11.82;7.32;;;;;;;11.44;60.10;102444.28;4971049;28;123119;-82
2024/01/30 05:32:21;;;;;;;9.77;6.60;;;;;;;11.47;60.24;102441.56;4970983;28;125593;-82
2024/01/30 05:34:50;;;;;;;10.30;6.80;;;;;;;11.48;60.22;102451.25;4974384;28;113654;-82
2024/01/30 05:37:17;;;;;;;10.15;6.97;;;;;;;11.50;60.12;102454.75;4969609;28;113920;-82
2024/01/30 05:39:45;;;;;;;10.02;6.50;;;;;;;11.53;60.49;102452.91;4968703;28;125221;-82
2024/01/30 05:42:12;;;;;;;11.07;6.50;;;;;;;11.56;60.46;102453.72;4974264;28;125811;-85
2024/01/30 05:44:39;;;;;;;9.63;5.85;;;;;;;11.60;60.36;102454.53;4976560;28;114995;-85
2024/01/30 05:47:07;;;;;;;9.20;6.10;;;;;;;11.65;60.46;102450.00;4953761;28;114889;-83
2024/01/30 05:49:34;;;;;;;11.10;7.05;;;;;;;11.68;60.37;102448.16;4961990;28;124264;-82
2024/01/30 05:52:03;;;;;;;12.15;6.63;;;;;;;11.72;60.39;102448.94;4957669;28;124877;-82
2024/01/30 05:54:31;;;;;;;9.73;6.75;;;;;;;11.76;60.48;102447.97;4972815;28;115583;-82
2024/01/30 05:56:58;;;;;;;10.00;6.40;;;;;;;11.78;60.32;102448.78;4973832;28;113117;-82
2024/01/30 05:59:25;;;;;;;10.38;6.95;;;;;;;11.80;60.42;102452.28;4970073;28;124144;-83
2024/01/30 06:01:52;;;;;;;8.95;6.28;;;;;;;11.82;60.22;102449.59;4961607;28;123055;-85
2024/01/30 06:04:20;;;;;;;11.35;6.90;;;;;;;11.84;60.27;102453.94;4959295;28;115254;-83
2024/01/30 06:06:47;;;;;;;10.63;6.38;;;;;;;11.86;60.28;102452.13;4968382;28;115736;-83
2024/01/30 06:09:15;;;;;;;11.27;6.40;;;;;;;11.87;60.41;102448.56;4962891;28;124033;-83
2024/01/30 06:11:42;;;;;;;8.73;6.38;;;;;;;11.88;60.23;102450.31;4963232;28;123608;-85
2024/01/30 06:14:09;;;;;;;9.85;6.75;;;;;;;11.90;60.45;102449.44;4987320;28;116211;-83
2024/01/30 06:16:36;;;;;;;10.40;6.50;;;;;;;11.91;60.12;102459.16;4961799;28;114612;-83
2024/01/30 06:19:04;;;;;;;11.13;6.70;;;;;;;11.90;59.90;102442.34;4959413;28;122103;-82
2024/01/30 06:21:32;;;;;;;10.68;7.03;;;;;;;11.90;60.39;102447.63;4986911;28;122274;-82
2024/01/30 06:23:59;;;;;;;9.82;6.60;;;;;;;11.90;60.08;102437.03;4987103;28;112644;-82
2024/01/30 06:26:26;;;;;;;10.98;6.57;;;;;;;11.91;60.16;102437.91;4972541;28;113102;-82
2024/01/30 06:28:53;;;;;;;10.35;6.28;;;;;;;11.90;60.17;102447.63;4995862;28;123205;-81
2024/01/30 06:31:21;;;;;;;12.40;6.70;;;;;;;11.88;60.13;102452.09;4980521;28;123164;-82
2024/01/30 06:33:49;;;;;;;9.82;6.35;;;;;;;11.91;60.53;102459.16;4978553;28;113445;-81
2024/01/30 06:36:17;;;;;;;9.10;6.30;;;;;;;11.90;60.11;102457.41;4984155;28;113231;-81
2024/01/30 06:38:44;;;;;;;9.23;6.40;;;;;;;11.89;60.19;102461.81;4978286;28;123419;-80
2024/01/30 06:41:11;;;;;;;11.25;6.55;;;;;;;11.91;60.05;102459.16;4989089;28;123585;-81
2024/01/30 06:43:38;;;;;;;8.05;5.53;;;;;;;11.90;60.03;102457.41;4976993;28;115332;-83
2024/01/30 06:46:06;;;;;;;10.90;4.85;;;;;;;11.91;60.08;102448.53;4991192;28;113608;-83
2024/01/30 06:48:33;;;;;;;10.05;5.03;;;;;;;11.91;60.13;102460.03;4995697;28;122394;-82
2024/01/30 06:51:00;;;;;;;10.43;4.88;;;;;;;11.91;59.91;102464.47;4981519;28;124486;-83
2024/01/30 06:53:28;;;;;;;7.07;4.68;;;;;;;11.92;60.01;102466.19;4979541;28;114286;-83
2024/01/30 06:55:55;;;;;;;8.70;4.65;;;;;;;11.93;59.86;102467.97;4982746;28;114980;-83
2024/01/30 06:58:22;;;;;;;8.18;4.60;;;;;;;11.93;59.85;102462.66;4967215;28;123095;-83
2024/01/30 07:00:49;;;;;;;8.57;5.00;;;;;;;11.93;60.05;102474.13;4959538;28;122847;-84
2024/01/30 07:03:16;;;;;;;9.75;4.57;;;;;;;11.94;59.93;102472.34;4975747;28;116626;-83
2024/01/30 07:05:44;;;;;;;9.10;4.57;;;;;;;11.94;59.85;102480.31;4954982;28;115437;-83
2024/01/30 07:08:11;;;;;;;8.55;4.70;;;;;;;11.93;60.01;102486.53;4980088;28;124048;-83
2024/01/30 07:10:38;;;;;;;8.73;4.88;;;;;;;11.93;59.94;102483.88;4972780;28;124013;-83
2024/01/30 07:13:05;;;;;;;10.23;4.70;;;;;;;11.92;60.06;102482.13;4971610;28;113646;-82
2024/01/30 07:15:33;;;;;;;8.18;4.57;;;;;;;11.92;60.09;102487.44;4973965;28;115107;-83
2024/01/30 07:18:00;;;;;;;8.20;4.45;;;;;;;11.92;59.86;102487.44;4972594;28;125404;-83
2024/01/30 07:20:30;;;;;;;10.15;4.63;;;;;;;11.91;59.99;102491.03;4974704;28;124131;-83
2024/01/30 07:22:58;;;;;;;11.43;5.10;;;;;;;11.92;59.89;102501.56;4973113;28;113983;-83
2024/01/30 07:25:26;;;;;;;8.43;4.30;;;;;;;11.91;60.01;102501.63;4970734;28;115864;-83
2024/01/30 07:27:54;;;;;;;9.45;4.55;;;;;;;11.92;59.99;102498.06;4961576;28;123115;-82
2024/01/30 07:30:23;;;;;;;8.65;4.68;;;;;;;11.92;59.99;102506.03;4949571;28;124847;-81
2024/01/30 07:32:50;;;;;;;10.10;4.30;;;;;;;11.94;60.11;102517.47;4966897;28;115561;-80
2024/01/30 07:35:17;;;;;;;7.18;4.28;;;;;;;11.95;60.04;102511.28;4968448;28;114338;-81
2024/01/30 07:37:44;;;;;;;7.70;3.58;;;;;;;11.95;60.18;102513.94;4952749;28;126146;-81
2024/01/30 07:40:12;;;;;;;8.15;3.80;;;;;;;11.97;59.85;102512.09;4978097;28;124016;-80
2024/01/30 07:42:39;;;;;;;8.70;3.40;;;;;;;11.99;60.16;102507.63;4960604;28;114296;-80
2024/01/30 07:45:07;;;;;;;6.40;3.67;;;;;;;12.00;59.89;102512.91;4956087;28;114338;-81
2024/01/30 07:47:34;;;;;;;7.07;4.05;;;;;;;12.06;60.44;102517.19;4988021;28;124051;-80
2024/01/30 07:50:01;;;;;;;8.48;3.22;;;;;;;12.09;60.23;102511.78;4970311;28;123915;-80
2024/01/30 07:52:29;;;;;;;9.52;3.42;;;;;;;12.13;60.12;102507.28;4956546;28;114171;-80
2024/01/30 07:54:56;;;;;;;7.22;3.58;;;;;;;12.15;60.20;102516.97;4953849;28;115284;-80
2024/01/30 07:57:24;;;;;;;7.35;3.47;;;;;;;12.22;59.82;102507.03;4969485;28;124959;-80
2024/01/30 07:59:51;;;;;;;5.50;3.15;;;;;;;12.24;60.12;102521.16;4966348;28;123060;-80
2024/01/30 08:02:19;;;;;;;7.03;3.85;;;;;;;12.27;60.20;102527.28;4957972;28;113983;-81
2024/01/30 08:04:48;;;;;;;5.57;3.53;;;;;;;12.31;60.29;102537.84;4978368;28;114330;-79
2024/01/30 08:07:17;;;;;;;6.60;3.15;;;;;;;12.34;60.26;102527.13;4970259;28;124742;-81
2024/01/30 08:09:45;;;;;;;8.00;3.92;;;;;;;12.39;60.27;102535.84;4956345;28;125040;-80
2024/01/30 08:12:13;;;;;;;8.98;4.03;;;;;;;12.41;60.16;102534.03;4967915;28;114217;-80
2024/01/30 08:14:41;;;;;;;7.65;3.13;;;;;;;12.44;60.18;102518.88;4951605;28;113396;-80
2024/01/30 08:17:08;;;;;;;7.55;3.33;;;;;;;12.47;60.10;102533.88;4967193;28;124555;-80
2024/01/30 08:19:35;;;;;;;7.35;3.60;;;;;;;12.51;60.16;102537.31;4971997;28;121928;-80
2024/01/30 08:22:03;;;;;;;7.93;3.55;;;;;;;12.55;60.26;102531.03;4975526;28;114508;-80
2024/01/30 08:24:30;;;;;;;8.23;3.80;;;;;;;12.59;60.35;102533.56;4975350;28;114551;-79
2024/01/30 08:26:58;;;;;;;5.53;3.22;;;;;;;12.65;60.30;102533.38;4975510;28;124679;-80
2024/01/30 08:29:25;;;;;;;7.47;3.30;;;;;;;12.71;60.24;102536.78;4982275;28;122630;-81
2024/01/30 08:31:52;;;;;;;6.78;3.70;;;;;;;12.77;60.22;102536.63;4972433;28;115067;-78
2024/01/30 08:34:21;;;;;;;7.07;3.40;;;;;;;12.82;60.27;102534.72;4945456;28;115388;-79
2024/01/30 08:36:48;;;;;;;9.20;3.90;;;;;;;12.87;60.01;102538.13;4968126;28;126309;-80
2024/01/30 08:39:15;;;;;;;8.23;3.40;;;;;;;12.92;60.14;102528.25;4951742;28;123868;-80
2024/01/30 08:41:43;;;;;;;7.05;3.15;;;;;;;12.96;60.25;102527.25;4968321;28;116157;-80
2024/01/30 08:44:11;;;;;;;7.07;3.63;;;;;;;13.01;60.28;102533.28;4963345;28;113845;-81
2024/01/30 08:46:38;;;;;;;7.30;3.42;;;;;;;13.08;60.11;102530.47;4936805;28;124903;-81
2024/01/30 08:49:05;;;;;;;6.07;3.00;;;;;;;13.11;60.11;102533.91;4967617;28;124209;-81
2024/01/30 08:51:33;;;;;;;5.95;3.65;;;;;;;13.15;60.09;102532.06;4964536;28;114496;-81
2024/01/30 08:54:02;;;;;;;6.18;3.28;;;;;;;13.19;60.12;102539.03;4968727;28;114797;-80
2024/01/30 08:56:29;;;;;;;7.65;3.25;;;;;;;13.23;60.00;102540.66;4947516;28;126298;-81
2024/01/30 08:58:57;;;;;;;6.28;3.17;;;;;;;13.26;60.16;102535.28;4964986;28;123816;-80
2024/01/30 09:01:25;;;;;;;8.52;3.30;;;;;;;13.31;60.15;102538.69;4942058;28;115146;-80
2024/01/30 09:03:52;;;;;;;5.97;3.30;;;;;;;13.35;60.06;102540.31;4958676;28;114290;-81
2024/01/30 09:06:19;;;;;;;5.65;3.00;;;;;;;13.38;59.94;102540.25;4956647;28;125131;-81
2024/01/30 09:08:46;;;;;;;5.93;3.40;;;;;;;13.43;59.96;102537.47;4965919;28;123676;-81
2024/01/30 09:11:15;;;;;;;6.18;3.15;;;;;;;13.47;60.02;102538.22;4961425;28;115385;-81
2024/01/30 09:13:42;;;;;;;7.38;3.35;;;;;;;13.50;59.94;102532.81;4960181;28;114371;-81
2024/01/30 09:16:09;;;;;;;6.18;3.30;;;;;;;13.54;59.90;102539.78;4966053;28;124749;-81
2024/01/30 09:18:37;;;;;;;6.32;3.40;;;;;;;13.57;59.68;102539.72;4966747;28;125706;-81
2024/01/30 09:21:04;;;;;;;7.47;3.08;;;;;;;13.61;59.93;102546.66;4944810;28;113312;-82
2024/01/30 09:23:32;;;;;;;7.70;3.03;;;;;;;13.63;59.95;102544.84;4949285;28;113525;-82
2024/01/30 09:26:00;;;;;;;6.55;3.45;;;;;;;13.65;59.67;102548.31;4962019;28;123575;-83
2024/01/30 09:28:28;;;;;;;7.25;3.50;;;;;;;13.67;59.80;102557.13;4951470;28;123479;-85
2024/01/30 09:30:56;;;;;;;5.78;2.97;;;;;;;13.70;59.84;102557.03;4962280;28;115652;-82
2024/01/30 09:33:23;;;;;;;7.05;3.40;;;;;;;13.73;59.66;102566.72;4965500;28;115029;-83
2024/01/30 09:35:51;;;;;;;7.38;3.50;;;;;;;13.74;59.85;102564.00;4978450;28;124425;-82
2024/01/30 09:38:18;;;;;;;6.93;3.28;;;;;;;13.76;59.84;102562.19;4960877;28;124164;-83
2024/01/30 09:40:53;;;;;;;6.20;3.20;;;;;;;13.80;59.87;102571.81;4959615;28;115713;-83
2024/01/30 09:43:23;;;;;;;8.38;3.78;;;;;;;13.83;59.67;102566.41;4950976;28;116071;-83
2024/01/30 09:45:55;;;;;;;8.93;3.55;;;;;;;13.88;59.77;102565.38;4967816;28;125035;-83
2024/01/30 09:48:23;;;;;;;7.13;3.50;;;;;;;13.91;59.74;102567.97;4950288;28;123017;-83
2024/01/30 09:50:52;;;;;;;7.53;3.53;;;;;;;13.94;59.77;102570.53;4960067;28;113360;-82
2024/01/30 09:53:20;;;;;;;6.07;3.67;;;;;;;13.97;59.65;102570.41;4964417;28;114899;-83
2024/01/30 09:55:50;;;;;;;6.50;3.45;;;;;;;13.99;59.72;102571.25;4956461;28;124350;-82
2024/01/30 09:58:17;;;;;;;5.95;3.40;;;;;;;14.01;59.87;102566.72;4961338;28;124506;-82
2024/01/30 10:00:45;;;;;;;7.78;3.47;;;;;;;14.05;59.76;102578.16;4984882;28;115307;-83
2024/01/30 10:03:14;;;;;;;7.45;3.35;;;;;;;14.07;59.66;102577.22;4955598;28;115782;-83
2024/01/30 10:05:50;;;;;;;8.52;3.60;;;;;;;14.10;59.60;102569.09;4965094;28;126159;-83
2024/01/30 10:08:19;;;;;;;6.35;3.70;;;;;;;14.12;59.56;102563.72;4958196;28;124468;-83
2024/01/30 10:10:50;;;;;;;7.30;3.50;;;;;;;14.13;59.56;102566.34;4971181;28;115677;-82
2024/01/30 10:13:18;;;;;;;8.88;3.75;;;;;;;14.16;59.57;102571.56;4984403;28;113825;-83
2024/01/30 10:15:45;;;;;;;7.10;3.90;;;;;;;14.18;59.43;102575.06;4970720;28;123705;-83
2024/01/30 10:18:12;;;;;;;6.22;3.72;;;;;;;14.23;59.55;102579.38;4952765;28;122778;-83
2024/01/30 10:20:42;;;;;;;7.93;3.45;;;;;;;14.26;59.67;102576.59;4965253;28;115243;-84
2024/01/30 10:23:10;;;;;;;9.82;3.45;;;;;;;14.30;59.51;102572.94;4956275;28;113353;-83
2024/01/30 10:25:38;;;;;;;6.28;3.55;;;;;;;14.33;59.68;102572.81;4965286;28;124704;-84
2024/01/30 10:28:05;;;;;;;6.40;3.63;;;;;;;14.34;59.42;102575.44;4969908;28;123872;-83
2024/01/30 10:30:33;;;;;;;7.60;3.95;;;;;;;14.38;59.57;102570.88;4965041;28;114989;-83
2024/01/30 10:33:00;;;;;;;10.90;3.90;;;;;;;14.40;59.51;102580.56;4959460;28;113820;-83
2024/01/30 10:35:28;;;;;;;6.95;3.40;;;;;;;14.46;59.56;102582.13;4940072;28;125349;-83
2024/01/30 10:37:57;;;;;;;8.18;3.70;;;;;;;14.50;59.62;102593.56;4950312;28;123566;-83
2024/01/30 10:40:27;;;;;;;9.77;4.47;;;;;;;14.54;59.69;102588.09;4951843;28;113092;-84
2024/01/30 10:42:56;;;;;;;8.15;3.83;;;;;;;14.56;59.48;102596.94;4967848;28;115202;-83
2024/01/30 10:45:27;;;;;;;11.60;4.40;;;;;;;14.58;59.38;102584.44;4950624;28;123630;-84
2024/01/30 10:47:57;;;;;;;10.77;4.05;;;;;;;14.58;59.33;102589.78;4962322;28;122324;-83
2024/01/30 10:50:25;;;;;;;9.45;3.90;;;;;;;14.60;59.31;102590.59;4952492;28;114487;-83
2024/01/30 10:52:55;;;;;;;7.47;3.50;;;;;;;14.63;59.56;102586.06;4951478;28;115647;-83
2024/01/30 10:55:23;;;;;;;8.18;3.63;;;;;;;14.66;59.37;102581.50;4964248;28;125182;-84
2024/01/30 10:57:51;;;;;;;9.48;4.00;;;;;;;14.72;59.66;102585.75;4951749;28;124858;-83
2024/01/30 11:00:22;;;;;;;8.70;3.72;;;;;;;14.76;59.37;102582.06;4955257;28;115636;-84
2024/01/30 11:02:50;;;;;;;8.38;3.95;;;;;;;14.81;59.50;102590.78;4962141;28;113849;-83
2024/01/30 11:05:27;;;;;;;10.52;3.95;;;;;;;14.86;59.64;102583.50;4952663;28;124022;-84
2024/01/30 11:08:10;;;;;;;10.75;3.80;;;;;;;14.90;59.53;102579.78;4971584;28;124972;-84
2024/01/30 11:10:47;;;;;;;6.40;3.80;;;;;;;14.94;59.38;102576.09;4967499;28;116057;-83
2024/01/30 11:13:15;;;;;;;6.40;3.50;;;;;;;14.98;59.54;102577.72;4939126;28;115982;-83
2024/01/30 11:15:42;;;;;;;8.52;3.70;;;;;;;15.00;59.49;102580.34;4962841;28;125037;-83